createdAt,value
2023-01-27T00:01:10.137Z,3.93
2023-01-27T00:03:37.506Z,3.94
2023-01-27T00:06:06.671Z,3.91
2023-01-27T00:08:34.384Z,3.87
2023-01-27T00:11:40.586Z,3.83
2023-01-27T00:14:07.848Z,3.67
2023-01-27T00:16:35.371Z,3.49
2023-01-27T00:19:02.631Z,3.42
2023-01-27T00:21:48.727Z,3.15
2023-01-27T00:24:34.666Z,3.07
2023-01-27T00:27:03.889Z,3.21
2023-01-27T00:29:31.165Z,3.28
2023-01-27T00:32:17.405Z,3.23
2023-01-27T00:34:44.724Z,3.30
2023-01-27T00:37:12.518Z,3.24
2023-01-27T00:39:39.845Z,3.29
2023-01-27T00:42:07.429Z,3.34
2023-01-27T00:44:34.746Z,3.41
2023-01-27T00:47:02.339Z,3.50
2023-01-27T00:49:29.612Z,3.55
2023-01-27T00:51:57.130Z,3.59
2023-01-27T00:54:24.436Z,3.60
2023-01-27T00:56:51.990Z,3.59
2023-01-27T00:59:19.321Z,3.51
2023-01-27T01:01:46.880Z,3.46
2023-01-27T01:04:14.288Z,3.46
2023-01-27T01:06:41.896Z,3.42
2023-01-27T01:09:09.161Z,3.40
2023-01-27T01:11:36.715Z,3.34
2023-01-27T01:14:03.992Z,3.36
2023-01-27T01:16:31.654Z,3.39
2023-01-27T01:18:58.988Z,3.40
2023-01-27T01:21:26.643Z,3.38
2023-01-27T01:23:53.938Z,3.37
2023-01-27T01:26:21.565Z,3.37
2023-01-27T01:28:48.916Z,3.31
2023-01-27T01:31:20.041Z,3.31
2023-01-27T01:33:48.491Z,3.19
2023-01-27T01:36:20.440Z,3.05
2023-01-27T01:38:48.737Z,2.97
2023-01-27T01:41:20.456Z,2.94
2023-01-27T01:43:51.480Z,3.00
2023-01-27T01:46:20.416Z,3.01
2023-01-27T01:48:58.559Z,2.95
2023-01-27T01:51:35.480Z,2.91
2023-01-27T01:54:17.199Z,2.83
2023-01-27T01:56:58.640Z,2.82
2023-01-27T02:00:18.643Z,2.89
2023-01-27T02:02:50.285Z,2.96
2023-01-27T02:05:22.106Z,3.04
2023-01-27T02:08:15.564Z,2.98
2023-01-27T02:10:43.066Z,2.93
2023-01-27T02:13:10.686Z,2.92
2023-01-27T02:15:39.008Z,2.87
2023-01-27T02:18:07.765Z,2.78
2023-01-27T02:20:45.487Z,2.63
2023-01-27T02:23:39.526Z,2.55
2023-01-27T02:26:25.755Z,2.44
2023-01-27T02:29:00.733Z,2.52
2023-01-27T02:31:28.387Z,2.49
2023-01-27T02:34:12.252Z,2.37
2023-01-27T02:36:48.929Z,2.44
2023-01-27T02:39:22.092Z,2.48
2023-01-27T02:41:54.971Z,2.43
2023-01-27T02:44:22.591Z,2.48
2023-01-27T02:46:49.997Z,2.40
2023-01-27T02:49:17.623Z,2.37
2023-01-27T02:51:44.904Z,2.43
2023-01-27T02:54:12.497Z,2.36
2023-01-27T02:56:39.880Z,2.34
2023-01-27T02:59:07.577Z,2.40
2023-01-27T03:01:34.958Z,2.39
2023-01-27T03:04:02.534Z,2.43
2023-01-27T03:06:29.801Z,2.52
2023-01-27T03:08:57.538Z,2.39
2023-01-27T03:11:43.371Z,2.22
2023-01-27T03:14:11.006Z,2.30
2023-01-27T03:16:57.263Z,2.26
2023-01-27T03:19:26.787Z,2.18
2023-01-27T03:21:54.713Z,2.10
2023-01-27T03:24:22.907Z,2.09
2023-01-27T03:26:50.219Z,2.18
2023-01-27T03:29:36.121Z,2.04
2023-01-27T03:32:03.643Z,1.96
2023-01-27T03:34:31.201Z,1.82
2023-01-27T03:37:16.987Z,1.83
2023-01-27T03:40:02.967Z,1.95
2023-01-27T03:42:49.091Z,1.91
2023-01-27T03:45:35.446Z,1.99
2023-01-27T03:48:02.772Z,1.90
2023-01-27T03:50:43.209Z,1.90
2023-01-27T03:53:11.503Z,1.96
2023-01-27T03:55:39.488Z,1.97
2023-01-27T03:58:22.932Z,1.87
2023-01-27T04:01:14.029Z,1.96
2023-01-27T04:04:00.245Z,1.91
2023-01-27T04:06:50.237Z,2.04
2023-01-27T04:09:34.169Z,1.91
2023-01-27T04:12:05.783Z,1.78
2023-01-27T04:14:35.784Z,1.76
2023-01-27T04:17:12.794Z,1.72
2023-01-27T04:19:40.450Z,1.68
2023-01-27T04:22:13.166Z,1.73
2023-01-27T04:24:40.635Z,1.79
2023-01-27T04:27:14.161Z,1.74
2023-01-27T04:29:43.012Z,1.65
2023-01-27T04:32:13.508Z,1.62
2023-01-27T04:34:42.220Z,1.62
2023-01-27T04:37:10.713Z,1.68
2023-01-27T04:39:38.514Z,1.68
2023-01-27T04:42:06.197Z,1.76
2023-01-27T04:44:33.450Z,1.81
2023-01-27T04:47:01.150Z,1.84
2023-01-27T04:49:28.464Z,1.84
2023-01-27T04:51:56.393Z,1.83
2023-01-27T04:54:23.671Z,1.77
2023-01-27T04:57:05.704Z,1.75
2023-01-27T04:59:32.971Z,1.66
2023-01-27T05:02:00.649Z,1.63
2023-01-27T05:04:27.904Z,1.65
2023-01-27T05:06:55.859Z,1.65
2023-01-27T05:09:23.422Z,1.64
2023-01-27T05:11:50.998Z,1.66
2023-01-27T05:14:18.441Z,1.63
2023-01-27T05:16:45.998Z,1.57
2023-01-27T05:19:13.337Z,1.45
2023-01-27T05:21:40.875Z,1.38
2023-01-27T05:24:08.499Z,1.33
2023-01-27T05:26:36.136Z,1.48
2023-01-27T05:29:03.550Z,1.30
2023-01-27T05:31:32.113Z,1.38
2023-01-27T05:34:01.883Z,1.40
2023-01-27T05:36:30.310Z,1.42
2023-01-27T05:38:59.357Z,1.41
2023-01-27T05:41:33.417Z,1.36
2023-01-27T05:44:00.730Z,1.42
2023-01-27T05:46:31.139Z,1.50
2023-01-27T05:49:02.847Z,1.52
2023-01-27T05:51:36.652Z,1.55
2023-01-27T05:54:04.556Z,1.59
2023-01-27T05:56:33.169Z,1.61
2023-01-27T05:59:01.087Z,1.67
2023-01-27T06:01:32.103Z,1.70
2023-01-27T06:04:00.315Z,1.72
2023-01-27T06:06:30.967Z,1.78
2023-01-27T06:09:00.437Z,1.57
2023-01-27T06:11:28.174Z,1.65
2023-01-27T06:13:55.796Z,1.48
2023-01-27T06:16:24.098Z,1.38
2023-01-27T06:18:51.633Z,1.44
2023-01-27T06:21:20.692Z,1.39
2023-01-27T06:23:48.563Z,1.53
2023-01-27T06:26:19.646Z,1.54
2023-01-27T06:28:47.432Z,1.58
2023-01-27T06:31:22.546Z,1.57
2023-01-27T06:33:51.815Z,1.58
2023-01-27T06:36:22.282Z,1.59
2023-01-27T06:38:51.398Z,1.58
2023-01-27T06:41:19.397Z,1.42
2023-01-27T06:43:46.883Z,1.47
2023-01-27T06:46:15.146Z,1.45
2023-01-27T06:48:42.495Z,1.46
2023-01-27T06:51:10.377Z,1.48
2023-01-27T06:53:38.843Z,1.43
2023-01-27T06:56:07.137Z,1.46
2023-01-27T06:58:34.713Z,1.41
2023-01-27T07:01:06.460Z,1.49
2023-01-27T07:06:00.454Z,1.62
2023-01-27T07:08:27.758Z,1.64
2023-01-27T07:10:55.284Z,1.67
2023-01-27T07:13:22.643Z,1.65
2023-01-27T07:15:56.363Z,1.61
2023-01-27T07:18:24.226Z,1.63
2023-01-27T07:20:52.447Z,1.57
2023-01-27T07:23:20.192Z,1.70
2023-01-27T07:25:47.978Z,1.79
2023-01-27T07:28:15.256Z,1.69
2023-01-27T07:30:44.141Z,1.88
2023-01-27T07:33:14.710Z,1.78
2023-01-27T07:35:43.030Z,1.82
2023-01-27T07:38:10.519Z,1.81
2023-01-27T07:40:38.109Z,1.86
2023-01-27T07:43:05.385Z,1.80
2023-01-27T07:45:33.068Z,1.84
2023-01-27T07:48:02.581Z,1.81
2023-01-27T07:50:30.722Z,1.78
2023-01-27T07:53:03.338Z,1.94
2023-01-27T07:55:33.015Z,2.10
2023-01-27T07:58:00.346Z,2.10
2023-01-27T08:00:29.134Z,2.33
2023-01-27T08:02:58.231Z,2.35
2023-01-27T08:05:26.806Z,2.46
2023-01-27T08:07:58.664Z,2.43
2023-01-27T08:10:26.671Z,2.63
2023-01-27T08:12:54.043Z,2.66
2023-01-27T08:15:22.795Z,2.91
2023-01-27T08:17:58.060Z,2.89
2023-01-27T08:20:28.060Z,3.03
2023-01-27T08:22:56.142Z,2.90
2023-01-27T08:25:24.630Z,2.82
2023-01-27T08:27:56.882Z,2.69
2023-01-27T08:30:25.193Z,2.64
2023-01-27T08:32:52.749Z,2.54
2023-01-27T08:35:20.421Z,2.50
2023-01-27T08:37:56.079Z,2.44
2023-01-27T08:40:23.727Z,2.46
2023-01-27T08:42:51.569Z,2.49
2023-01-27T08:45:19.557Z,2.43
2023-01-27T08:47:47.170Z,2.51
2023-01-27T08:50:15.312Z,2.49
2023-01-27T08:52:44.263Z,2.60
2023-01-27T08:55:12.623Z,2.57
2023-01-27T08:57:40.058Z,2.56
2023-01-27T09:00:09.670Z,2.56
2023-01-27T09:02:37.533Z,2.56
2023-01-27T09:05:05.790Z,2.61
2023-01-27T09:07:34.283Z,2.79
2023-01-27T09:10:13.690Z,2.79
2023-01-27T09:12:43.413Z,2.87
2023-01-27T09:15:12.839Z,2.95
2023-01-27T09:17:40.688Z,3.08
2023-01-27T09:20:09.545Z,3.27
2023-01-27T09:22:40.438Z,3.47
2023-01-27T09:25:14.425Z,3.63
2023-01-27T09:27:41.855Z,3.87
2023-01-27T09:30:12.692Z,4.10
2023-01-27T09:32:40.771Z,4.35
2023-01-27T09:35:09.498Z,4.46
2023-01-27T09:37:56.876Z,4.58
2023-01-27T09:41:11.066Z,4.44
2023-01-27T09:44:22.969Z,4.32
2023-01-27T09:46:58.846Z,4.24
2023-01-27T09:49:40.016Z,4.11
2023-01-27T09:52:22.579Z,3.88
2023-01-27T09:55:07.374Z,3.67
2023-01-27T09:57:49.710Z,3.69
2023-01-27T10:00:38.198Z,3.33
2023-01-27T10:03:14.214Z,3.35
2023-01-27T10:05:50.928Z,3.47
2023-01-27T10:08:53.305Z,3.32
2023-01-27T10:11:39.876Z,3.32
2023-01-27T10:14:54.431Z,3.30
2023-01-27T10:17:34.361Z,3.29
2023-01-27T10:20:47.072Z,3.11
2023-01-27T10:23:57.688Z,3.18
2023-01-27T10:26:51.008Z,3.09
2023-01-27T10:29:28.639Z,3.01
2023-01-27T10:32:18.787Z,3.13
2023-01-27T10:35:14.421Z,2.95
2023-01-27T10:38:03.733Z,3.01
2023-01-27T10:41:24.694Z,2.97
2023-01-27T10:44:49.297Z,2.89
2023-01-27T10:47:51.201Z,2.98
2023-01-27T10:50:37.760Z,3.09
2023-01-27T10:53:28.758Z,3.28
2023-01-27T10:56:17.877Z,3.40
2023-01-27T10:58:58.253Z,3.24
2023-01-27T11:01:35.407Z,3.46
2023-01-27T11:04:34.751Z,3.37
2023-01-27T11:07:05.421Z,3.36
2023-01-27T11:09:43.830Z,3.43
2023-01-27T11:12:15.291Z,3.45
2023-01-27T11:14:48.281Z,3.41
2023-01-27T11:17:39.227Z,3.41
2023-01-27T11:20:38.444Z,3.41
2023-01-27T11:23:21.176Z,3.64
2023-01-27T11:25:55.294Z,3.83
2023-01-27T11:28:38.994Z,4.37
2023-01-27T11:31:48.088Z,5.08
2023-01-27T11:34:56.082Z,5.67
2023-01-27T11:37:49.782Z,5.87
2023-01-27T11:40:34.435Z,5.79
2023-01-27T11:43:04.017Z,5.75
2023-01-27T11:45:37.376Z,5.67
2023-01-27T11:48:14.376Z,5.78
2023-01-27T11:50:44.054Z,5.45
2023-01-27T11:53:29.696Z,5.21
2023-01-27T11:56:06.470Z,5.19
2023-01-27T11:59:09.774Z,4.98
2023-01-27T12:01:48.691Z,4.60
2023-01-27T12:04:46.512Z,4.52
2023-01-27T12:07:35.561Z,4.47
2023-01-27T12:10:21.212Z,4.34
2023-01-27T12:12:48.997Z,4.27
2023-01-27T12:15:18.506Z,4.19
2023-01-27T12:18:14.001Z,3.94
2023-01-27T12:20:48.676Z,3.97
2023-01-27T12:23:29.537Z,4.12
2023-01-27T12:26:11.251Z,4.16
2023-01-27T12:29:04.474Z,4.07
2023-01-27T12:31:44.304Z,4.05
2023-01-27T12:34:37.472Z,4.09
2023-01-27T12:37:08.145Z,4.07
2023-01-27T12:39:46.716Z,3.94
2023-01-27T12:42:43.627Z,3.79
2023-01-27T12:45:25.564Z,3.89
2023-01-27T12:48:19.890Z,3.93
2023-01-27T12:50:50.497Z,3.94
2023-01-27T12:53:27.947Z,3.85
2023-01-27T12:56:08.333Z,3.95
2023-01-27T12:58:58.794Z,3.97
2023-01-27T13:01:28.805Z,3.93
2023-01-27T13:04:04.711Z,3.94
2023-01-27T13:07:08.476Z,4.01
2023-01-27T13:10:04.316Z,3.91
2023-01-27T13:12:49.751Z,3.75
2023-01-27T13:15:24.005Z,3.82
2023-01-27T13:18:00.636Z,3.83
2023-01-27T13:20:51.016Z,3.59
2023-01-27T13:23:34.964Z,3.64
2023-01-27T13:26:11.602Z,3.73
2023-01-27T13:29:09.381Z,3.60
2023-01-27T13:32:02.146Z,3.50
2023-01-27T13:34:49.309Z,3.46
2023-01-27T13:37:46.821Z,3.39
2023-01-27T13:40:28.627Z,3.36
2023-01-27T13:43:20.238Z,3.41
2023-01-27T13:45:57.479Z,3.34
2023-01-27T13:48:37.371Z,3.44
2023-01-27T13:51:20.216Z,3.42
2023-01-27T13:53:57.547Z,3.43
2023-01-27T13:57:09.449Z,3.30
2023-01-27T14:00:27.597Z,3.32
2023-01-27T14:03:18.846Z,3.19
2023-01-27T14:06:13.403Z,3.07
2023-01-27T14:08:53.263Z,2.96
2023-01-27T14:12:03.555Z,3.02
2023-01-27T14:14:57.440Z,3.02
2023-01-27T14:17:43.725Z,2.98
2023-01-27T14:21:01.508Z,2.93
2023-01-27T14:24:05.644Z,2.91
2023-01-27T14:26:47.305Z,2.94
2023-01-27T14:29:51.560Z,2.87
2023-01-27T14:32:46.856Z,2.81
2023-01-27T14:35:37.515Z,2.90
2023-01-27T14:38:26.230Z,2.90
2023-01-27T14:41:09.391Z,2.72
2023-01-27T14:44:29.952Z,2.60
2023-01-27T14:47:47.143Z,2.56
2023-01-27T14:50:38.459Z,2.56
2023-01-27T14:53:14.674Z,2.52
2023-01-27T14:56:02.654Z,2.54
2023-01-27T14:59:06.265Z,2.48
2023-01-27T15:02:01.537Z,2.52
2023-01-27T15:05:16.727Z,2.53
2023-01-27T15:07:55.884Z,2.56
2023-01-27T15:10:29.416Z,2.59
2023-01-27T15:13:32.525Z,2.49
2023-01-27T15:16:55.043Z,2.53
2023-01-27T15:19:41.267Z,2.60
2023-01-27T15:22:38.028Z,2.48
2023-01-27T15:25:29.909Z,2.49
2023-01-27T15:27:58.850Z,2.54
2023-01-27T15:30:31.571Z,2.38
2023-01-27T15:32:59.052Z,2.45
2023-01-27T15:35:28.163Z,2.44
2023-01-27T15:38:15.895Z,2.34
2023-01-27T15:41:09.190Z,2.37
2023-01-27T15:44:02.186Z,2.35
2023-01-27T15:46:35.763Z,2.42
2023-01-27T15:49:10.994Z,2.51
2023-01-27T15:51:39.080Z,2.58
2023-01-27T15:54:19.144Z,2.63
2023-01-27T15:56:52.251Z,2.59
2023-01-27T15:59:30.585Z,2.62
2023-01-27T16:02:25.088Z,2.52
2023-01-27T16:05:22.014Z,2.57
2023-01-27T16:08:02.134Z,2.52
2023-01-27T16:10:35.616Z,2.59
2023-01-27T16:13:21.611Z,2.51
2023-01-27T16:15:49.886Z,2.41
2023-01-27T16:18:17.374Z,2.52
2023-01-27T16:20:53.295Z,2.49
2023-01-27T16:23:51.289Z,2.47
2023-01-27T16:26:43.448Z,2.40
2023-01-27T16:29:33.860Z,2.31
2023-01-27T16:32:07.140Z,2.20
2023-01-27T16:35:05.964Z,2.24
2023-01-27T16:37:39.105Z,2.37
2023-01-27T16:40:19.734Z,2.30
2023-01-27T16:42:53.101Z,2.30
2023-01-27T16:45:29.114Z,2.34
2023-01-27T16:48:21.439Z,2.21
2023-01-27T16:50:50.179Z,2.22
2023-01-27T16:53:26.166Z,2.17
2023-01-27T16:56:04.695Z,2.17
2023-01-27T16:58:45.834Z,2.29
2023-01-27T17:01:32.019Z,2.16
2023-01-27T17:04:18.023Z,2.25
2023-01-27T17:06:49.245Z,2.20
2023-01-27T17:09:41.904Z,2.25
2023-01-27T17:12:44.486Z,2.38
2023-01-27T17:15:38.184Z,2.22
2023-01-27T17:18:11.498Z,2.21
2023-01-27T17:20:45.911Z,2.20
2023-01-27T17:23:35.306Z,2.21
2023-01-27T17:26:14.821Z,2.18
2023-01-27T17:28:46.833Z,2.27
2023-01-27T17:31:22.488Z,2.18
2023-01-27T17:33:59.539Z,2.14
2023-01-27T17:36:27.581Z,2.05
2023-01-27T17:38:57.421Z,2.20
2023-01-27T17:41:36.699Z,2.16
2023-01-27T17:44:14.333Z,2.28
2023-01-27T17:46:42.056Z,2.30
2023-01-27T17:49:17.688Z,2.19
2023-01-27T17:51:53.626Z,2.27
2023-01-27T17:54:30.597Z,2.25
2023-01-27T17:57:16.216Z,2.11
2023-01-27T17:59:51.028Z,2.02
2023-01-27T18:02:31.752Z,2.09
2023-01-27T18:05:13.974Z,2.22
2023-01-27T18:07:41.800Z,2.14
2023-01-27T18:10:34.967Z,2.14
2023-01-27T18:13:20.698Z,2.20
2023-01-27T18:16:01.478Z,2.10
2023-01-27T18:18:35.717Z,2.16
2023-01-27T18:21:10.699Z,2.27
2023-01-27T18:23:45.413Z,2.24
2023-01-27T18:26:39.921Z,2.08
2023-01-27T18:29:25.769Z,2.09
2023-01-27T18:32:15.711Z,2.05
2023-01-27T18:34:57.443Z,2.07
2023-01-27T18:37:29.378Z,2.09
2023-01-27T18:39:59.955Z,1.97
2023-01-27T18:42:31.138Z,2.08
2023-01-27T18:44:58.542Z,2.19
2023-01-27T18:47:34.974Z,2.08
2023-01-27T18:50:11.086Z,2.10
2023-01-27T18:52:39.264Z,2.01
2023-01-27T18:55:30.568Z,2.08
2023-01-27T18:58:00.479Z,2.07
2023-01-27T19:00:40.436Z,1.98
2023-01-27T19:03:17.921Z,2.18
2023-01-27T19:05:46.674Z,2.04
2023-01-27T19:08:18.727Z,2.03
2023-01-27T19:10:47.667Z,2.03
2023-01-27T19:13:16.282Z,1.94
2023-01-27T19:15:55.082Z,1.98
2023-01-27T19:18:38.637Z,1.81
2023-01-27T19:21:06.694Z,1.81
2023-01-27T19:23:34.364Z,1.81
2023-01-27T19:26:05.202Z,1.76
2023-01-27T19:28:37.386Z,1.88
2023-01-27T19:31:07.503Z,1.96
2023-01-27T19:33:37.296Z,1.98
2023-01-27T19:36:42.300Z,1.89
2023-01-27T19:39:18.025Z,1.74
2023-01-27T19:41:48.282Z,1.68
2023-01-27T19:44:16.594Z,1.73
2023-01-27T19:46:43.941Z,1.76
2023-01-27T19:49:19.688Z,1.73
2023-01-27T19:51:47.343Z,1.72
2023-01-27T19:54:14.973Z,1.85
2023-01-27T19:56:42.283Z,1.77
2023-01-27T19:59:12.370Z,1.92
2023-01-27T20:01:39.662Z,2.07
2023-01-27T20:04:07.388Z,1.86
2023-01-27T20:06:34.783Z,2.00
2023-01-27T20:09:03.663Z,1.84
2023-01-27T20:11:37.998Z,1.71
2023-01-27T20:14:25.882Z,1.73
2023-01-27T20:16:53.351Z,1.81
2023-01-27T20:19:21.000Z,1.71
2023-01-27T20:21:49.902Z,1.77
2023-01-27T20:24:19.876Z,1.79
2023-01-27T20:26:47.670Z,1.69
2023-01-27T20:29:15.409Z,1.79
2023-01-27T20:31:43.339Z,1.81
2023-01-27T20:34:11.053Z,1.71
2023-01-27T20:36:38.637Z,1.69
2023-01-27T20:39:06.416Z,1.81
2023-01-27T20:41:33.892Z,1.97
2023-01-27T20:44:01.618Z,2.04
2023-01-27T20:46:30.490Z,1.89
2023-01-27T20:49:01.275Z,1.80
2023-01-27T20:51:28.827Z,1.74
2023-01-27T20:53:57.901Z,1.92
2023-01-27T20:56:25.280Z,1.82
2023-01-27T20:58:54.366Z,1.66
2023-01-27T21:01:23.628Z,1.76
2023-01-27T21:03:51.983Z,1.70
2023-01-27T21:06:20.240Z,1.84
2023-01-27T21:08:49.299Z,1.70
2023-01-27T21:11:20.155Z,1.74
2023-01-27T21:13:49.231Z,1.78
2023-01-27T21:16:16.707Z,1.61
2023-01-27T21:18:44.750Z,1.61
2023-01-27T21:21:27.065Z,1.67
2023-01-27T21:23:56.432Z,1.93
2023-01-27T21:26:24.918Z,1.69
2023-01-27T21:28:52.999Z,1.74
2023-01-27T21:31:22.614Z,1.60
2023-01-27T21:33:51.148Z,1.67
2023-01-27T21:36:19.489Z,1.77
2023-01-27T21:38:50.396Z,1.86
2023-01-27T21:41:40.483Z,1.80
2023-01-27T21:44:39.903Z,2.00
2023-01-27T21:47:14.081Z,1.78
2023-01-27T21:50:03.049Z,1.81
2023-01-27T21:52:49.259Z,1.73
2023-01-27T21:55:20.830Z,1.85
2023-01-27T21:57:53.279Z,1.75
2023-01-27T22:00:26.752Z,1.76
2023-01-27T22:02:57.119Z,1.79
2023-01-27T22:05:27.096Z,1.75
2023-01-27T22:07:54.891Z,1.70
2023-01-27T22:10:28.810Z,1.74
2023-01-27T22:13:08.293Z,1.82
2023-01-27T22:15:36.153Z,1.73
2023-01-27T22:18:05.845Z,1.68
2023-01-27T22:20:33.659Z,1.65
2023-01-27T22:23:00.898Z,1.70
2023-01-27T22:25:28.501Z,1.58
2023-01-27T22:27:56.252Z,1.79
2023-01-27T22:30:24.300Z,1.78
2023-01-27T22:32:51.634Z,1.77
2023-01-27T22:35:19.849Z,1.59
2023-01-27T22:37:49.109Z,1.64
2023-01-27T22:40:17.234Z,1.63
2023-01-27T22:42:44.522Z,1.86
2023-01-27T22:45:13.038Z,1.87
2023-01-27T22:47:40.651Z,1.90
2023-01-27T22:50:10.023Z,1.85
2023-01-27T22:52:39.325Z,1.77
2023-01-27T22:55:12.403Z,1.71
2023-01-27T22:57:39.876Z,1.68
2023-01-27T23:00:09.619Z,1.62
2023-01-27T23:02:37.289Z,1.66
2023-01-27T23:05:05.515Z,1.76
2023-01-27T23:07:32.951Z,1.62
2023-01-27T23:10:01.035Z,1.68
2023-01-27T23:12:28.365Z,1.62
2023-01-27T23:14:55.969Z,1.62
2023-01-27T23:17:23.231Z,1.68
2023-01-27T23:19:50.812Z,1.40
2023-01-27T23:22:18.099Z,1.58
2023-01-27T23:24:45.615Z,1.47
2023-01-27T23:27:12.872Z,1.58
2023-01-27T23:29:40.401Z,1.53
2023-01-27T23:32:07.955Z,1.54
2023-01-27T23:34:35.512Z,1.38
2023-01-27T23:37:02.833Z,1.41
2023-01-27T23:39:30.374Z,1.40
2023-01-27T23:41:57.628Z,1.56
2023-01-27T23:44:25.143Z,1.61
2023-01-27T23:46:52.408Z,1.52
2023-01-27T23:49:20.084Z,1.49
2023-01-27T23:51:47.412Z,1.48
2023-01-27T23:54:15.035Z,1.52
2023-01-27T23:56:42.273Z,1.65
2023-01-27T23:59:13.262Z,1.51
